Flight Track Log - Related Links

Times and Time Zones

All times are in EDT time to prevent confusion due to time zone crossing. See the SWA975 flight status page for this flight to view local times or setup timezone preferences in your user account.

Time Position Orientation Groundspeed Altitude Reporting Facility
EDT Latitude Longitude Course Direction KTS MPH feet Rate Location/Type
Sat 08:20:39 AM 41.9500 -72.6717 69° East 173 199 700  Level Boston Center
Sat 08:21:51 AM 41.9731 -72.5908 69° East 200 230 2,500 1,636 Climbing Boston Center
Sat 08:22:51 AM 41.9628 -72.4931 98° East 234 269 4,300 2,350 Climbing Boston Center
Sat 08:23:51 AM 41.8981 -72.4875 176° South 199 229 7,200 3,200 Climbing Boston Center
Sat 08:24:51 AM 41.8169 -72.4594 166° South 252 290 10,700 2,650 Climbing Boston Center
Sat 08:25:51 AM 41.7356 -72.4289 164° South 318 366 12,500 2,400 Climbing Boston Center
Sat 08:26:51 AM 41.6292 -72.3956 167° South 350 403 15,500 2,700 Climbing Boston Center
Sat 08:27:51 AM 41.5375 -72.3681 167° South 378 435 17,900 2,450 Climbing Boston Center
Sat 08:28:51 AM 41.4292 -72.3489 172° South 385 443 20,400 2,500 Climbing Boston Center
Sat 08:29:51 AM 41.3228 -72.3433 178° South 385 443 22,900 2,150 Climbing Boston Center
Sat 08:30:51 AM 41.2250 -72.4208 211° Southwest 355 409 24,700 1,700 Climbing Boston Center
Sat 08:31:51 AM 41.1458 -72.5256 225° Southwest 371 427 26,300 1,550 Climbing Boston Center
Sat 08:32:51 AM 41.0561 -72.6161 217° Southwest 392 451 27,800 1,650 Climbing Boston Center
Sat 08:33:51 AM 40.9622 -72.7122 218° Southwest 409 471 29,600 2,000 Climbing Boston Center
Sat 08:34:51 AM 40.8703 -72.8025 217° Southwest 419 482 31,800 1,900 Climbing Boston Center
Sat 08:35:51 AM 40.7822 -72.8897 217° Southwest 414 476 33,400 1,450 Climbing Boston Center
Sat 08:36:51 AM 40.6986 -72.9656 215° Southwest 420 483 34,700 1,350 Climbing Boston Center
Sat 08:37:51 AM 40.6086 -73.0578 218° Southwest 420 483 36,100 1,500 Climbing Boston Center
Sat 08:38:51 AM 40.5183 -73.1444 216° Southwest 413 475 37,700 950 Climbing Boston Center
Sat 08:39:51 AM 40.4303 -73.2281 216° Southwest 408 470 38,000 96 Climbing Boston Center
Sat 08:41:58 AM 40.2561 -73.4089 218° Southwest 390 449 38,000  Level Washington Center
Sat 08:42:59 AM 40.1719 -73.4875 216° Southwest 390 449 38,000  Level Washington Center
Sat 08:44:00 AM 40.0758 -73.5797 216° Southwest 390 449 38,000  Level Washington Center
Sat 08:44:58 AM 39.9917 -73.6608 216° Southwest 385 443 38,000  Level Washington Center
Sat 08:45:58 AM 39.9056 -73.7414 216° Southwest 385 443 38,000  Level Washington Center
Sat 08:46:59 AM 39.8253 -73.8219 218° Southwest 385 443 38,000  Level Washington Center
Sat 08:47:59 AM 39.7411 -73.8994 215° Southwest 379 436 38,000  Level Washington Center
Sat 08:49:00 AM 39.6525 -73.9692 211° Southwest 379 436 38,000  Level Washington Center
Sat 08:49:58 AM 39.5617 -74.0411 211° Southwest 379 436 38,000  Level Washington Center
Sat 08:50:59 AM 39.4708 -74.1131 211° Southwest 384 442 38,000  Level Washington Center
Sat 08:51:59 AM 39.3800 -74.1847 211° Southwest 384 442 38,000  Level Washington Center
Sat 08:52:57 AM 39.2872 -74.2617 213° Southwest 390 449 38,000  Level Washington Center
Sat 08:53:58 AM 39.1983 -74.3328 212° Southwest 390 449 38,000  Level Washington Center
Sat 08:54:59 AM 39.1075 -74.4039 211° Southwest 385 443 38,000  Level Washington Center
Sat 08:55:59 AM 39.0308 -74.4639 211° Southwest 380 437 38,000  Level Washington Center
Sat 08:57:00 AM 38.9419 -74.5322 211° Southwest 380 437 38,000  Level Washington Center
Sat 08:57:58 AM 38.8508 -74.6053 212° Southwest 385 443 38,000  Level Washington Center
Sat 08:58:58 AM 38.7617 -74.6731 211° Southwest 385 443 38,000  Level Washington Center
Sat 08:59:59 AM 38.6725 -74.7381 210° Southwest 380 437 38,000  Level Washington Center
Sat 09:01:00 AM 38.5833 -74.8108 213° Southwest 380 437 38,000  Level Washington Center
Sat 09:01:58 AM 38.4942 -74.8781 211° Southwest 380 437 38,000  Level Washington Center
Sat 09:02:58 AM 38.4050 -74.9478 212° Southwest 380 437 38,000  Level Washington Center
Sat 09:03:59 AM 38.3197 -75.0147 212° Southwest 380 437 38,000  Level Washington Center
Sat 09:04:59 AM 38.2303 -75.0869 212° Southwest 380 437 38,000  Level Washington Center
Sat 09:06:00 AM 38.1431 -75.1561 212° Southwest 380 437 38,000  Level Washington Center
Sat 09:06:58 AM 38.0494 -75.2253 210° Southwest 380 437 38,000  Level Washington Center
Sat 09:07:58 AM 37.9581 -75.2942 211° Southwest 380 437 38,000  Level Washington Center
Sat 09:08:59 AM 37.8664 -75.3656 212° Southwest 385 443 38,000  Level Washington Center
Sat 09:09:59 AM 37.7725 -75.4342 210° Southwest 390 449 38,000  Level Washington Center
Sat 09:11:00 AM 37.6808 -75.5025 211° Southwest 390 449 38,000  Level Washington Center
Sat 09:11:57 AM 37.5892 -75.5683 210° Southwest 385 443 38,000  Level Washington Center
Sat 09:12:58 AM 37.4953 -75.6389 211° Southwest 385 443 38,000  Level Washington Center
Sat 09:13:59 AM 37.4078 -75.7069 212° Southwest 380 437 38,000  Level Washington Center
Sat 09:14:57 AM 37.3178 -75.7719 210° Southwest 380 437 38,000  Level Washington Center
Sat 09:15:58 AM 37.2322 -75.8369 211° Southwest 380 437 38,000  Level Washington Center
Sat 09:16:58 AM 37.1444 -75.9019 211° Southwest 380 437 38,000  Level Washington Center
Sat 09:17:59 AM 37.0567 -75.9667 210° Southwest 375 432 38,000  Level Washington Center
Sat 09:19:00 AM 36.9583 -76.0311 208° Southwest 375 432 38,000  Level Washington Center
Sat 09:20:00 AM 36.8683 -76.0981 211° Southwest 387 445 38,000  Level Washington Center
Sat 09:20:58 AM 36.7764 -76.1650 210° Southwest 387 445 38,000  Level Washington Center
Sat 09:21:59 AM 36.6781 -76.2419 212° Southwest 387 445 38,000  Level Washington Center
Sat 09:23:00 AM 36.5878 -76.3083 211° Southwest 381 438 38,000  Level Washington Center
Sat 09:23:58 AM 36.4956 -76.3747 210° Southwest 381 438 38,000  Level Washington Center
Sat 09:24:59 AM 36.4056 -76.4358 209° Southwest 381 438 38,000  Level Washington Center
Sat 09:25:59 AM 36.3069 -76.4914 204° Southwest 381 438 38,000  Level Washington Center
Sat 09:26:59 AM 36.2067 -76.5367 200° South 381 438 38,000  Level Washington Center
Sat 09:28:00 AM 36.1061 -76.5817 200° South 386 444 38,000  Level Washington Center
Sat 09:29:00 AM 36.0075 -76.6267 200° South 386 444 38,000  Level Washington Center
Sat 09:30:00 AM 35.9092 -76.6717 200° South 386 444 38,000  Level Washington Center
Sat 09:30:58 AM 35.8064 -76.7189 200° South 391 450 38,000  Level Washington Center
Sat 09:31:58 AM 35.7081 -76.7611 199° South 391 450 38,000  Level Washington Center
Sat 09:32:59 AM 35.6094 -76.8056 200° South 391 450 38,000  Level Washington Center
Sat 09:33:59 AM 35.5067 -76.8525 200° South 391 450 38,000  Level Washington Center
Sat 09:34:59 AM 35.4061 -76.8994 201° Southwest 391 450 38,000  Level Washington Center
Sat 09:36:00 AM 35.3033 -76.9436 199° South 391 450 38,000  Level Washington Center
Sat 09:37:00 AM 35.2028 -76.9875 200° South 391 450 38,000  Level Washington Center
Sat 09:37:58 AM 35.1000 -77.0342 200° South 391 450 38,000  Level Washington Center
Sat 09:38:58 AM 35.0097 -77.0781 202° Southwest 391 450 38,000  Level Washington Center
Sat 09:39:58 AM 34.8922 -77.1267 199° South 391 450 38,000  Level Washington Center
Sat 09:40:59 AM 34.8000 -77.1703 201° Southwest 396 456 38,000  Level Washington Center
Sat 09:42:38 AM 34.6236 -77.2464 200° South 392 451 38,000  Level Jacksonville Center
Sat 09:43:38 AM 34.5192 -77.2911 199° South 397 457 38,000  Level Jacksonville Center
Sat 09:44:38 AM 34.4150 -77.3381 200° South 397 457 38,000  Level Jacksonville Center
Sat 09:45:38 AM 34.3106 -77.3825 199° South 402 463 38,000  Level Jacksonville Center
Sat 09:46:38 AM 34.2042 -77.4269 199° South 402 463 38,000  Level Jacksonville Center
Sat 09:47:38 AM 34.1022 -77.4833 205° Southwest 407 468 38,000  Level Jacksonville Center
Sat 09:48:38 AM 33.9903 -77.5481 206° Southwest 407 468 38,000  Level Jacksonville Center
Sat 09:49:38 AM 33.8864 -77.6117 207° Southwest 414 476 38,000  Level Jacksonville Center
Sat 09:50:38 AM 33.7867 -77.6678 205° Southwest 414 476 38,000  Level Jacksonville Center
Sat 09:51:38 AM 33.6847 -77.7286 206° Southwest 414 476 38,000  Level Jacksonville Center
Sat 09:52:38 AM 33.5931 -77.7814 206° Southwest 414 476 38,000  Level Jacksonville Center
Sat 09:53:38 AM 33.4931 -77.8394 206° Southwest 414 476 38,000  Level Jacksonville Center
Sat 09:54:38 AM 33.3892 -77.8978 205° Southwest 409 471 38,000  Level Jacksonville Center
Sat 09:55:38 AM 33.2914 -77.9578 207° Southwest 409 471 38,000  Level Jacksonville Center
Sat 09:56:38 AM 33.1872 -78.0156 205° Southwest 414 476 38,000  Level Jacksonville Center
Sat 09:57:38 AM 33.0831 -78.0758 206° Southwest 414 476 38,000  Level Jacksonville Center
Sat 09:58:38 AM 32.9767 -78.1361 205° Southwest 414 476 38,000  Level Jacksonville Center
Sat 09:59:38 AM 32.8728 -78.1983 207° Southwest 414 476 38,000  Level Jacksonville Center
Sat 10:00:38 AM 32.7706 -78.2631 208° Southwest 414 476 38,000  Level Jacksonville Center
Sat 10:01:38 AM 32.6686 -78.3275 208° Southwest 419 482 38,000  Level Jacksonville Center
Sat 10:02:38 AM 32.5644 -78.3869 206° Southwest 419 482 38,000  Level Jacksonville Center
Sat 10:03:38 AM 32.4625 -78.4536 209° Southwest 419 482 38,000  Level Jacksonville Center
Sat 10:04:38 AM 32.3481 -78.5256 208° Southwest 419 482 38,000  Level Jacksonville Center
Sat 10:05:38 AM 32.2436 -78.5894 207° Southwest 424 488 38,000  Level Jacksonville Center
Sat 10:06:38 AM 32.1394 -78.6556 208° Southwest 424 488 38,000 500 Level Jacksonville Center
Sat 10:07:38 AM 32.0331 -78.7194 207° Southwest 424 488 39,000 1,000 Climbing Jacksonville Center
Sat 10:08:38 AM 31.9308 -78.7803 207° Southwest 419 482 40,000 500 Climbing Jacksonville Center
Sat 10:09:38 AM 31.8197 -78.8367 203° Southwest 419 482 40,000  Level Jacksonville Center
Sat 10:10:38 AM 31.7019 -78.8686 193° South 426 490 40,000  Level Jacksonville Center
Sat 10:11:38 AM 31.5792 -78.8886 188° South 439 505 40,000  Level Jacksonville Center
Sat 10:12:38 AM 31.4547 -78.9083 188° South 450 518 40,000  Level Jacksonville Center
Sat 10:13:38 AM 31.3300 -78.9236 186° South 455 524 40,000  Level Jacksonville Center
Sat 10:14:38 AM 31.2053 -78.9458 189° South 455 524 40,000  Level Jacksonville Center
Sat 10:15:38 AM 31.0767 -78.9681 188° South 466 536 40,000  Level Jacksonville Center
Sat 10:16:38 AM 30.9664 -78.9800 185° South 461 531 40,000  Level Jacksonville Center
Sat 10:17:38 AM 30.8417 -78.9997 188° South 461 531 40,000  Level Jacksonville Center
Sat 10:18:38 AM 30.7150 -79.0194 188° South 466 536 40,000  Level Jacksonville Center
Sat 10:19:38 AM 30.5861 -79.0392 188° South 466 536 40,000  Level Jacksonville Center
Sat 10:20:38 AM 30.4553 -79.0589 187° South 466 536 40,000  Level Jacksonville Center
Sat 10:23:09 AM 30.1314 -79.1056 187° South 465 535 40,000  Level Miami Center
Sat 10:24:09 AM 29.9850 -79.1311 189° South 473 544 40,000  Level Miami Center
Sat 10:25:09 AM 29.8514 -79.1475 186° South 486 559 40,000  Level Miami Center
Sat 10:26:09 AM 29.7236 -79.1806 193° South 493 567 40,000  Level Miami Center
Sat 10:27:09 AM 29.5917 -79.2161 193° South 488 562 40,000  Level Miami Center
Sat 10:28:09 AM 29.4719 -79.2611 198° South 483 556 40,000  Level Miami Center
Sat 10:29:09 AM 29.3319 -79.2817 187° South 484 557 40,000 -1,250 Level Miami Center
Sat 10:30:09 AM 29.1978 -79.3072 189° South 478 550 37,500 -2,250 Descending Miami Center
Sat 10:31:09 AM 29.0783 -79.3428 195° South 466 536 35,500 -2,200 Descending Miami Center
Sat 10:32:09 AM 28.9569 -79.3731 192° South 460 529 33,100 -2,150 Descending Miami Center
Sat 10:33:09 AM 28.8333 -79.4036 192° South 455 524 31,200 -1,450 Descending Miami Center
Sat 10:34:09 AM 28.7094 -79.4339 192° South 449 517 30,200 -600 Descending Miami Center
Sat 10:35:09 AM 28.5858 -79.4642 192° South 449 517 30,000 -100 Descending Miami Center
Sat 10:36:09 AM 28.4642 -79.4944 192° South 449 517 30,000  Level Miami Center
Sat 10:37:09 AM 28.3383 -79.5267 193° South 454 522 30,000  Level Miami Center
Sat 10:38:09 AM 28.2169 -79.5569 192° South 454 522 30,000  Level Miami Center
Sat 10:39:09 AM 28.0911 -79.5867 192° South 454 522 30,000  Level Miami Center
Sat 10:40:09 AM 27.9672 -79.6167 192° South 454 522 30,000  Level Miami Center
Sat 10:41:09 AM 27.8456 -79.6467 192° South 448 516 30,000  Level Miami Center
Sat 10:42:09 AM 27.7197 -79.6764 192° South 457 526 30,000 -500 Level Miami Center
Sat 10:43:09 AM 27.6083 -79.7158 197° South 457 526 29,000 -1,450 Descending Miami Center
Sat 10:44:09 AM 27.5044 -79.7931 213° Southwest 452 520 27,100 -2,100 Descending Miami Center
Sat 10:45:09 AM 27.3919 -79.8836 216° Southwest 460 529 24,800 -2,132 Descending Miami Center
Sat 10:46:10 AM 27.2944 -79.9581 214° Southwest 455 524 22,800 -2,050 Descending Miami Center
Sat 10:47:09 AM 27.1989 -80.0233 211° Southwest 436 502 20,700 -1,966 Descending Miami Center
Sat 10:48:09 AM 27.0956 -79.9833 161° South 358 412 18,900 -1,450 Descending Miami Center
Sat 10:49:09 AM 27.0197 -79.9136 141° Southeast 353 406 17,800 -1,200 Descending Miami Center
Sat 10:50:09 AM 26.9294 -79.8367 143° Southeast 370 426 16,500 -1,200 Descending Miami Center
Sat 10:51:09 AM 26.8492 -79.7694 143° Southeast 375 432 15,400 -1,150 Descending Miami Center
Sat 10:52:09 AM 26.7628 -79.7067 147° Southeast 370 426 14,200 -1,300 Descending Miami Center
Sat 10:53:09 AM 26.6706 -79.7186 187° South 323 372 12,800 -1,600 Descending Miami Center
Sat 10:54:09 AM 26.5947 -79.7561 204° Southwest 323 372 11,000 -1,570 Descending Miami Center
Sat 10:54:56 AM 26.5253 -79.7892 203° Southwest 311 358 10,000 -1,286 Descending Miami Center
Sat 10:55:33 AM 26.4808 -79.8161 208° Southwest 283 326 9,200 -1,562 Descending Miami Center
Sat 10:56:09 AM 26.4450 -79.8289 198° South 298 343 8,100 -1,180 Descending Miami Center
Sat 10:56:34 AM 26.4047 -79.8514 207° Southwest 285 328 8,000 -100 Descending Miami Center
Sat 10:57:09 AM 26.3669 -79.8711 205° Southwest 287 330 8,000  Level Miami Center
Sat 10:57:41 AM 26.3347 -79.9050 223° Southwest 282 325 8,000  Level Miami Center
Sat 10:58:09 AM 26.3133 -79.9253 220° Southwest 287 330 8,000 -581 Level Miami Center
Sat 10:58:43 AM 26.2708 -79.9661 221° Southwest 280 322 7,400 -900 Descending Miami Center
Sat 10:59:09 AM 26.2558 -79.9819 223° Southwest 282 325 7,100 -393 Descending Miami Center
Sat 10:59:44 AM 26.2133 -80.0225 221° Southwest 274 315 7,000 -200 Descending Miami Center
Sat 11:00:09 AM 26.2003 -80.0383 227° Southwest 282 325 6,900 -424 Descending Miami Center
Sat 11:01:09 AM 26.1633 -80.1089 240° Southwest 277 319 6,400 -652 Descending Miami Center
Sat 11:01:41 AM 26.1475 -80.1572 250° West 263 303 5,900 -600 Descending Miami Center
Sat 11:02:09 AM 26.1469 -80.1825 269° West 266 306 5,800 -716 Descending Miami Center
Sat 11:02:48 AM 26.1478 -80.2406 271° West 232 267 5,100 -900 Descending Miami Center
Sat 11:03:09 AM 26.1494 -80.2544 278° West 245 282 4,900 -90 Descending Miami Center
Sat 11:03:55 AM 26.1481 -80.3169 269° West 228 262 5,000 -167 Climbing Miami Center
Sat 11:04:57 AM 26.1483 -80.3933 270° West 229 264 4,600 -488 Descending Miami Center
Sat 11:05:58 AM 26.1364 -80.4600 259° West 225 259 4,000 -310 Descending Miami Center
Sat 11:06:53 AM 26.0844 -80.4469 167° South 222 255 4,000 -195 Level Miami Center
Sat 11:08:01 AM 26.0756 -80.3842 99° East 187 215 3,600 -651 Descending Miami Center
Sat 11:09:02 AM 26.0747 -80.3217 91° East 191 220 2,600 -983 Descending Miami Center
Sat 11:09:57 AM 26.0739 -80.2686 91° East 187 215 1,700 -923 Descending Miami Center
Sat 11:10:59 AM 26.0753 -80.2175 88° East 150 173 800 -871 Descending Miami Center
Sat 11:13:00 AM 26.0667 -80.1500 103° East  Level FlightAware Approximate
Sat 11:20:00 AM 26.0726 -80.1527 103° East  Level Estimated

Login

Don't have an account? Register now (free) for customized features, flight alerts, and more!